Time;durP1;ratioP1;P1;durP2;ratioP2;P2;SDS_P1;SDS_P2;PMS_P1;PMS_P2;Temp;Humidity;BMP_temperature;BMP_pressure;BME280_temperature;BME280_humidity;BME280_pressure;Samples;Min_cycle;Max_cycle;Signal;HPM_P1;HPM_P2
2021/10/21 00:00:43;;;;;;;0.98;0.22;;;17.10;99.90;;;;;;5063055;28;20035;-69
2021/10/21 00:03:09;;;;;;;1.27;1.17;;;17.10;99.90;;;;;;5072295;28;20058;-69
2021/10/21 00:05:34;;;;;;;0.43;0.43;;;17.10;99.90;;;;;;5068293;28;20470;-69
2021/10/21 00:08:00;;;;;;;0.20;0.20;;;17.00;99.90;;;;;;5060911;28;20089;-70
2021/10/21 00:10:25;;;;;;;0.50;0.40;;;17.00;99.90;;;;;;5065382;28;20029;-69
2021/10/21 00:12:51;;;;;;;0.47;0.47;;;17.00;99.90;;;;;;5065492;28;20024;-69
2021/10/21 00:15:16;;;;;;;0.20;0.20;;;17.00;99.90;;;;;;5073604;28;20386;-69
2021/10/21 00:17:45;;;;;;;1.90;1.35;;;17.00;99.90;;;;;;5069881;28;20031;-69
2021/10/21 00:20:11;;;;;;;0.52;0.52;;;17.00;99.90;;;;;;5067822;28;20074;-70
2021/10/21 00:22:37;;;;;;;0.15;0.08;;;17.00;99.90;;;;;;5064014;28;20379;-70
2021/10/21 00:25:05;;;;;;;1.05;0.82;;;17.00;99.90;;;;;;5069533;28;20021;-70
2021/10/21 00:27:31;;;;;;;0.50;0.50;;;17.00;99.90;;;;;;5065679;28;20115;-70
2021/10/21 00:29:57;;;;;;;0.40;0.40;;;17.00;99.90;;;;;;5070360;28;20116;-70
2021/10/21 00:32:23;;;;;;;0.20;0.20;;;17.00;99.90;;;;;;5056978;28;20086;-71
2021/10/21 00:34:48;;;;;;;0.63;0.50;;;17.00;99.90;;;;;;5067318;28;20029;-73
2021/10/21 00:37:14;;;;;;;0.10;0.10;;;17.00;99.90;;;;;;5072603;28;20415;-72
2021/10/21 00:39:39;;;;;;;1.05;0.60;;;17.00;99.90;;;;;;5072425;28;20078;-72
2021/10/21 00:42:04;;;;;;;0.35;0.35;;;16.90;99.90;;;;;;5070438;28;20043;-72
2021/10/21 00:44:30;;;;;;;0.75;0.55;;;17.00;99.90;;;;;;5073604;28;20019;-72
2021/10/21 00:46:57;;;;;;;2.63;0.90;;;17.00;99.90;;;;;;5073343;28;20532;-72
2021/10/21 00:49:23;;;;;;;0.17;0.17;;;17.00;99.90;;;;;;5077318;28;20051;-73
2021/10/21 00:51:49;;;;;;;0.15;0.13;;;17.00;99.90;;;;;;5077532;28;20554;-72
2021/10/21 00:54:17;;;;;;;0.85;0.85;;;17.00;99.90;;;;;;5074470;28;20044;-72
2021/10/21 00:56:44;;;;;;;1.77;0.25;;;17.00;99.90;;;;;;5075752;28;20124;-72
2021/10/21 00:59:10;;;;;;;0.40;0.35;;;17.00;99.90;;;;;;5071849;28;20032;-72
2021/10/21 01:01:36;;;;;;;0.65;0.65;;;16.90;99.90;;;;;;5076124;28;20032;-72
2021/10/21 01:04:03;;;;;;;0.38;0.38;;;16.90;99.90;;;;;;5066802;28;20020;-72
2021/10/21 01:06:28;;;;;;;0.95;0.68;;;16.90;99.90;;;;;;5067895;28;20111;-72
2021/10/21 01:08:54;;;;;;;0.45;0.40;;;16.90;99.90;;;;;;5062588;28;20033;-72
2021/10/21 01:11:21;;;;;;;0.60;0.60;;;16.90;99.90;;;;;;5068265;28;20029;-72
2021/10/21 01:13:46;;;;;;;0.90;0.50;;;16.90;99.90;;;;;;5065395;28;20036;-72
2021/10/21 01:16:14;;;;;;;1.00;0.47;;;16.90;99.90;;;;;;5059957;28;20037;-72
2021/10/21 01:18:41;;;;;;;1.10;0.30;;;16.90;99.90;;;;;;5063455;28;20146;-72
2021/10/21 01:21:08;;;;;;;1.45;1.00;;;16.90;99.90;;;;;;5054939;28;20032;-72
2021/10/21 01:23:35;;;;;;;0.10;0.10;;;16.80;99.90;;;;;;5054025;28;20045;-72
2021/10/21 01:26:01;;;;;;;0.63;0.63;;;16.80;99.90;;;;;;5058115;28;20032;-72
2021/10/21 01:28:27;;;;;;;0.45;0.45;;;16.80;99.90;;;;;;5066961;28;20051;-72
2021/10/21 01:30:52;;;;;;;0.17;0.17;;;16.80;99.90;;;;;;5061626;28;20028;-72
2021/10/21 01:33:18;;;;;;;1.00;0.40;;;16.80;99.90;;;;;;5069817;28;20054;-72
2021/10/21 01:35:43;;;;;;;0.30;0.30;;;16.80;99.90;;;;;;5069157;28;20025;-72
2021/10/21 01:38:09;;;;;;;0.40;0.40;;;16.80;99.90;;;;;;5060658;28;20469;-72
2021/10/21 01:40:35;;;;;;;0.40;0.40;;;16.80;99.90;;;;;;5060910;28;20032;-72
2021/10/21 01:43:00;;;;;;;0.75;0.75;;;16.80;99.90;;;;;;5068976;28;20028;-71
2021/10/21 01:45:29;;;;;;;1.20;1.10;;;16.80;99.90;;;;;;5069722;28;20111;-72
2021/10/21 01:47:55;;;;;;;0.50;0.50;;;16.80;99.90;;;;;;5067643;28;20047;-72
2021/10/21 01:50:21;;;;;;;0.10;0.10;;;16.80;99.90;;;;;;5068280;28;20045;-72
2021/10/21 01:52:47;;;;;;;0.10;0.10;;;16.80;99.90;;;;;;5069025;28;20047;-71
2021/10/21 01:55:14;;;;;;;0.55;0.50;;;16.80;99.90;;;;;;5068858;28;20059;-72
2021/10/21 01:57:40;;;;;;;0.10;0.10;;;16.80;99.90;;;;;;5065662;28;20024;-72
2021/10/21 02:00:08;;;;;;;2.25;0.30;;;16.80;99.90;;;;;;5069038;28;20032;-72
2021/10/21 02:03:02;;;;;;;4.35;0.57;;;16.80;99.90;;;;;;5062353;28;20034;-71
2021/10/21 02:05:28;;;;;;;0.25;0.25;;;16.80;99.90;;;;;;5044159;28;20036;-72
2021/10/21 02:07:53;;;;;;;0.00;0.00;;;16.80;99.90;;;;;;5067594;28;20021;-71
2021/10/21 02:10:20;;;;;;;0.90;0.52;;;16.80;99.90;;;;;;5057338;28;20059;-72
2021/10/21 02:12:47;;;;;;;1.58;0.70;;;16.80;99.90;;;;;;5055536;28;20483;-72
2021/10/21 02:15:13;;;;;;;0.10;0.10;;;16.90;99.90;;;;;;5056697;28;20041;-73
2021/10/21 02:17:39;;;;;;;0.40;0.40;;;16.80;99.90;;;;;;5067350;28;20035;-71
2021/10/21 02:20:09;;;;;;;0.30;0.30;;;16.80;99.90;;;;;;5060243;28;20395;-72
2021/10/21 02:22:34;;;;;;;0.10;0.10;;;16.80;99.90;;;;;;5067204;28;20047;-72
2021/10/21 02:25:00;;;;;;;0.28;0.22;;;16.80;99.90;;;;;;5068697;28;20036;-71
2021/10/21 02:27:26;;;;;;;0.30;0.30;;;16.80;99.90;;;;;;5068225;28;20491;-72
2021/10/21 02:29:51;;;;;;;0.13;0.13;;;16.90;99.90;;;;;;5065170;28;20029;-71
2021/10/21 02:32:16;;;;;;;3.50;0.52;;;16.90;99.90;;;;;;5067313;28;20032;-72
2021/10/21 02:34:42;;;;;;;0.10;0.10;;;16.90;99.90;;;;;;5058846;28;20031;-72
2021/10/21 02:37:07;;;;;;;0.28;0.28;;;16.90;99.90;;;;;;5068176;28;20487;-72
2021/10/21 02:39:33;;;;;;;2.92;1.00;;;16.90;99.90;;;;;;5066556;28;20029;-71
2021/10/21 02:41:59;;;;;;;2.88;0.57;;;16.90;99.90;;;;;;5067446;28;20089;-72
2021/10/21 02:44:24;;;;;;;0.43;0.43;;;16.90;99.90;;;;;;5063541;28;20023;-72
2021/10/21 02:46:50;;;;;;;0.20;0.20;;;17.00;99.90;;;;;;5066156;28;20028;-72
2021/10/21 02:49:15;;;;;;;0.20;0.20;;;17.00;99.90;;;;;;5068139;28;20044;-72
2021/10/21 02:51:41;;;;;;;0.30;0.20;;;16.90;99.90;;;;;;5059023;28;20040;-72
2021/10/21 02:54:07;;;;;;;0.10;0.10;;;16.90;99.90;;;;;;5067833;28;20031;-72
2021/10/21 02:56:33;;;;;;;0.22;0.15;;;17.00;99.90;;;;;;5055479;28;20426;-71
2021/10/21 02:58:58;;;;;;;2.40;0.30;;;17.00;99.90;;;;;;5067216;28;20036;-72
2021/10/21 03:01:24;;;;;;;0.32;0.32;;;16.90;99.90;;;;;;5061867;28;20066;-71
2021/10/21 03:03:49;;;;;;;0.05;0.05;;;16.90;99.90;;;;;;5067745;28;20028;-71
2021/10/21 03:06:15;;;;;;;0.20;0.20;;;16.90;99.90;;;;;;5052215;28;20542;-72
2021/10/21 03:08:40;;;;;;;0.20;0.20;;;16.90;99.90;;;;;;5057994;28;20082;-72
2021/10/21 03:11:05;;;;;;;0.40;0.40;;;16.90;99.90;;;;;;5057414;28;20031;-72
2021/10/21 03:13:31;;;;;;;0.05;0.05;;;16.90;99.90;;;;;;5066225;28;20365;-71
2021/10/21 03:15:57;;;;;;;0.00;0.00;;;17.00;99.90;;;;;;5054835;28;20020;-72
2021/10/21 03:18:22;;;;;;;0.10;0.10;;;16.90;99.90;;;;;;5067248;28;20012;-72
2021/10/21 03:20:48;;;;;;;0.00;0.00;;;16.90;99.90;;;;;;5065849;28;20451;-72
2021/10/21 03:23:14;;;;;;;0.10;0.10;;;16.90;99.90;;;;;;5064102;28;20045;-72
2021/10/21 03:25:39;;;;;;;0.30;0.30;;;16.90;99.90;;;;;;5067886;28;20387;-72
2021/10/21 03:28:05;;;;;;;0.10;0.10;;;16.90;99.90;;;;;;5066877;28;20411;-72
2021/10/21 03:30:30;;;;;;;0.28;0.17;;;16.90;99.90;;;;;;5065562;28;20052;-72
2021/10/21 03:32:55;;;;;;;0.05;0.05;;;16.90;99.90;;;;;;5062707;28;20044;-72
2021/10/21 03:35:21;;;;;;;0.03;0.03;;;16.90;99.90;;;;;;5052985;28;20024;-72
2021/10/21 03:37:47;;;;;;;2.28;0.93;;;16.90;99.90;;;;;;5066893;28;20478;-72
2021/10/21 03:40:14;;;;;;;0.00;0.00;;;16.90;99.90;;;;;;5067301;28;20498;-71
2021/10/21 03:42:39;;;;;;;0.20;0.20;;;16.90;99.90;;;;;;5066320;28;20423;-72
2021/10/21 03:45:06;;;;;;;0.10;0.10;;;16.90;99.90;;;;;;5067508;28;20056;-72
2021/10/21 03:47:32;;;;;;;0.00;0.00;;;16.90;99.90;;;;;;5065782;28;20029;-72
2021/10/21 03:49:57;;;;;;;0.30;0.30;;;16.80;99.90;;;;;;5062007;28;20036;-71
2021/10/21 03:52:23;;;;;;;0.90;0.28;;;16.90;99.90;;;;;;5070512;28;20020;-72
2021/10/21 03:54:49;;;;;;;0.30;0.30;;;16.80;99.90;;;;;;5067726;28;20673;-72
2021/10/21 03:57:15;;;;;;;1.20;0.40;;;16.90;99.90;;;;;;5071506;28;20028;-71
2021/10/21 03:59:41;;;;;;;0.47;0.30;;;16.80;99.90;;;;;;5066177;28;20229;-72
2021/10/21 04:02:06;;;;;;;0.05;0.05;;;16.90;99.90;;;;;;5062027;28;20025;-72
2021/10/21 04:04:32;;;;;;;0.00;0.00;;;16.90;99.90;;;;;;5070692;28;20017;-71
2021/10/21 04:06:58;;;;;;;0.05;0.05;;;16.90;99.90;;;;;;5070670;28;20054;-72
2021/10/21 04:09:24;;;;;;;0.10;0.10;;;16.90;99.90;;;;;;5070572;28;20043;-72
2021/10/21 04:11:49;;;;;;;0.20;0.20;;;16.90;99.90;;;;;;5069232;28;20033;-72
2021/10/21 04:14:15;;;;;;;0.45;0.45;;;16.90;99.90;;;;;;5066361;28;20066;-71
2021/10/21 04:16:40;;;;;;;0.10;0.10;;;16.90;99.90;;;;;;5067241;28;20036;-71
2021/10/21 04:19:05;;;;;;;0.00;0.00;;;17.00;99.30;;;;;;5070729;28;20020;-71
2021/10/21 04:21:31;;;;;;;0.40;0.30;;;17.10;99.60;;;;;;5071057;28;20021;-72
2021/10/21 04:23:57;;;;;;;0.08;0.08;;;17.00;99.90;;;;;;5069453;28;20048;-71
2021/10/21 04:26:23;;;;;;;0.00;0.00;;;16.90;99.90;;;;;;5059960;28;20391;-71
2021/10/21 04:28:49;;;;;;;0.08;0.08;;;16.70;99.90;;;;;;5070555;28;20029;-71
2021/10/21 04:31:15;;;;;;;0.50;0.50;;;16.50;99.90;;;;;;5069768;28;20622;-72
2021/10/21 04:33:41;;;;;;;0.65;0.52;;;16.40;99.90;;;;;;5070707;28;20056;-72
2021/10/21 04:36:07;;;;;;;0.00;0.00;;;16.30;99.90;;;;;;5069542;28;20040;-72
2021/10/21 04:38:32;;;;;;;0.10;0.10;;;16.20;99.90;;;;;;5070718;28;20024;-71
2021/10/21 04:40:58;;;;;;;0.10;0.10;;;16.10;99.90;;;;;;5059852;28;20394;-72
2021/10/21 04:43:23;;;;;;;0.10;0.10;;;16.10;99.90;;;;;;5067363;28;20052;-72
2021/10/21 04:45:49;;;;;;;0.03;0.03;;;16.00;99.90;;;;;;5062365;28;20036;-71
2021/10/21 04:48:15;;;;;;;0.00;0.00;;;16.00;99.90;;;;;;5070454;28;20021;-72
2021/10/21 04:50:41;;;;;;;0.10;0.10;;;16.00;99.90;;;;;;5069635;28;20056;-73
2021/10/21 04:53:06;;;;;;;0.00;0.00;;;16.00;99.90;;;;;;5066348;28;20444;-72
2021/10/21 04:55:35;;;;;;;0.00;0.00;;;16.00;99.90;;;;;;5070629;28;20031;-71
2021/10/21 04:58:02;;;;;;;0.32;0.20;;;16.00;99.90;;;;;;5070191;28;20029;-72
2021/10/21 05:00:29;;;;;;;0.00;0.00;;;16.00;99.90;;;;;;5062382;28;20036;-72
2021/10/21 05:02:55;;;;;;;0.00;0.00;;;16.00;99.90;;;;;;5056232;28;20035;-73
2021/10/21 05:05:20;;;;;;;0.00;0.00;;;15.90;99.90;;;;;;5069880;28;20107;-72
2021/10/21 05:07:46;;;;;;;0.00;0.00;;;16.00;99.90;;;;;;5069816;28;20430;-72
2021/10/21 05:10:12;;;;;;;0.10;0.10;;;15.90;99.90;;;;;;5069524;28;20624;-71
2021/10/21 05:12:37;;;;;;;0.25;0.25;;;15.90;99.90;;;;;;5066979;28;20036;-72
2021/10/21 05:15:04;;;;;;;0.00;0.00;;;15.90;99.90;;;;;;5064447;28;20498;-72
2021/10/21 05:17:29;;;;;;;0.00;0.00;;;15.90;99.90;;;;;;5069601;28;20056;-72
2021/10/21 05:19:55;;;;;;;0.20;0.20;;;15.90;99.90;;;;;;5069476;28;20048;-71
2021/10/21 05:22:20;;;;;;;0.10;0.10;;;15.90;99.90;;;;;;5062653;28;20027;-72
2021/10/21 05:24:46;;;;;;;0.00;0.00;;;15.90;99.90;;;;;;5069186;28;20454;-71
2021/10/21 05:27:12;;;;;;;1.25;0.70;;;15.90;99.90;;;;;;5069869;28;20039;-72
2021/10/21 05:29:38;;;;;;;0.00;0.00;;;15.90;99.90;;;;;;5056697;28;20025;-72
2021/10/21 05:32:09;;;;;;;0.00;0.00;;;15.90;99.90;;;;;;5066054;28;20518;-71
2021/10/21 05:34:35;;;;;;;;;;;15.90;99.90;;;;;;5064109;28;20065;-71
2021/10/21 05:37:10;;;;;;;0.20;0.20;;;16.00;99.90;;;;;;5073210;28;19913;-70
2021/10/21 05:39:35;;;;;;;1.65;0.90;;;16.00;99.90;;;;;;5066246;28;20017;-72
2021/10/21 05:42:01;;;;;;;0.00;0.00;;;16.00;99.90;;;;;;5069749;28;20048;-73
2021/10/21 05:44:40;;;;;;;;;;;;;;;;;;;;;
2021/10/21 05:47:06;;;;;;;0.10;0.10;;;16.00;99.90;;;;;;5072263;28;20035;-72
2021/10/21 05:49:32;;;;;;;0.47;0.45;;;16.00;99.90;;;;;;5070343;28;20115;-71
2021/10/21 05:51:57;;;;;;;0.50;0.50;;;16.00;99.90;;;;;;5061630;28;20053;-72
2021/10/21 05:54:23;;;;;;;0.08;0.08;;;16.10;99.90;;;;;;5063920;28;20081;-72
2021/10/21 05:56:49;;;;;;;0.43;0.20;;;16.00;99.90;;;;;;5069385;28;20029;-71
2021/10/21 05:59:14;;;;;;;0.00;0.00;;;16.10;99.90;;;;;;5068637;28;20027;-72
2021/10/21 06:01:40;;;;;;;0.00;0.00;;;16.10;99.90;;;;;;5068466;28;20021;-72
2021/10/21 06:04:06;;;;;;;0.00;0.00;;;16.20;99.90;;;;;;5068651;28;20482;-72
2021/10/21 06:06:34;;;;;;;0.05;0.05;;;16.20;99.90;;;;;;5067868;28;20426;-72
2021/10/21 06:09:02;;;;;;;0.00;0.00;;;16.30;99.90;;;;;;5068732;28;20028;-72
2021/10/21 06:11:29;;;;;;;0.20;0.20;;;16.30;99.90;;;;;;5067220;28;20055;-71
2021/10/21 06:13:54;;;;;;;0.00;0.00;;;16.40;99.90;;;;;;5066172;28;20513;-72
2021/10/21 06:16:19;;;;;;;1.95;0.63;;;16.40;99.90;;;;;;5064856;28;20033;-71
2021/10/21 06:18:45;;;;;;;0.22;0.22;;;16.50;99.60;;;;;;5068475;28;20443;-71
2021/10/21 06:21:12;;;;;;;0.00;0.00;;;16.40;99.60;;;;;;5068935;28;20033;-71
2021/10/21 06:23:37;;;;;;;0.00;0.00;;;16.50;99.20;;;;;;5054402;28;20123;-71
2021/10/21 06:26:03;;;;;;;0.10;0.10;;;16.50;99.00;;;;;;5056217;28;20478;-71
2021/10/21 06:28:29;;;;;;;0.00;0.00;;;16.50;98.00;;;;;;5068322;28;20304;-72
2021/10/21 06:30:55;;;;;;;0.10;0.10;;;16.50;97.40;;;;;;5066776;28;20069;-71
2021/10/21 06:33:21;;;;;;;0.30;0.30;;;16.60;97.40;;;;;;5060731;28;20032;-71
2021/10/21 06:35:46;;;;;;;0.00;0.00;;;16.50;97.50;;;;;;5063076;28;20043;-71
2021/10/21 06:38:14;;;;;;;0.13;0.13;;;16.50;97.30;;;;;;5054170;28;20036;-71
2021/10/21 06:40:39;;;;;;;0.38;0.38;;;16.60;97.30;;;;;;5056309;28;20035;-72
2021/10/21 06:43:05;;;;;;;3.97;0.40;;;16.60;96.80;;;;;;5066566;28;20024;-71
2021/10/21 06:45:31;;;;;;;0.10;0.10;;;16.50;96.90;;;;;;5068664;28;20017;-71
2021/10/21 06:47:57;;;;;;;0.25;0.10;;;16.60;96.20;;;;;;5066295;28;20032;-71
2021/10/21 06:50:23;;;;;;;0.47;0.47;;;16.60;96.20;;;;;;5065046;28;20040;-71
2021/10/21 06:52:49;;;;;;;0.15;0.15;;;16.60;96.10;;;;;;5068273;28;20368;-71
2021/10/21 06:55:18;;;;;;;0.00;0.00;;;16.60;95.70;;;;;;5068236;28;20144;-71
2021/10/21 06:57:49;;;;;;;0.10;0.10;;;16.70;94.60;;;;;;5058529;28;20102;-71
2021/10/21 07:00:15;;;;;;;0.10;0.10;;;16.70;94.20;;;;;;5068193;28;20455;-71
2021/10/21 07:02:41;;;;;;;0.00;0.00;;;16.70;93.80;;;;;;5059192;28;20118;-71
2021/10/21 07:05:07;;;;;;;0.17;0.17;;;16.60;93.40;;;;;;5068476;28;20024;-71
2021/10/21 07:07:33;;;;;;;0.00;0.00;;;16.60;93.20;;;;;;5065510;28;20032;-71
2021/10/21 07:10:00;;;;;;;0.00;0.00;;;16.60;92.50;;;;;;5058572;28;20032;-72
2021/10/21 07:12:26;;;;;;;0.00;0.00;;;16.50;92.30;;;;;;5063652;28;20078;-71
2021/10/21 07:14:51;;;;;;;0.00;0.00;;;16.50;90.20;;;;;;5058964;28;20513;-71
2021/10/21 07:17:17;;;;;;;0.00;0.00;;;16.40;88.10;;;;;;5055272;28;20024;-71
2021/10/21 07:19:45;;;;;;;0.30;0.30;;;16.40;87.70;;;;;;5066105;28;20032;-72
2021/10/21 07:22:11;;;;;;;0.55;0.32;;;16.30;85.50;;;;;;5062583;28;20034;-71
2021/10/21 07:24:36;;;;;;;0.20;0.20;;;16.30;85.10;;;;;;5062410;28;20136;-72
2021/10/21 07:27:02;;;;;;;0.00;0.00;;;16.20;84.70;;;;;;5065683;28;20031;-71
2021/10/21 07:29:27;;;;;;;0.00;0.00;;;16.20;84.80;;;;;;5068961;28;20029;-71
2021/10/21 07:31:53;;;;;;;0.00;0.00;;;16.10;83.70;;;;;;5064329;28;20028;-71
2021/10/21 07:34:18;;;;;;;0.38;0.38;;;16.10;83.70;;;;;;5066162;28;20053;-71
2021/10/21 07:36:44;;;;;;;0.00;0.00;;;16.10;83.20;;;;;;5071323;28;20386;-71
2021/10/21 07:39:09;;;;;;;0.20;0.20;;;16.10;83.40;;;;;;5056001;28;20024;-72
2021/10/21 07:41:35;;;;;;;1.08;0.65;;;16.10;82.60;;;;;;5058241;28;20103;-71
2021/10/21 07:44:01;;;;;;;0.00;0.00;;;16.10;82.40;;;;;;5051951;28;20048;-71
2021/10/21 07:46:26;;;;;;;0.80;0.80;;;16.10;81.70;;;;;;5065620;28;20032;-72
2021/10/21 07:48:52;;;;;;;1.30;0.73;;;16.10;81.10;;;;;;5065065;28;20532;-72
2021/10/21 07:51:17;;;;;;;1.10;0.30;;;16.10;81.10;;;;;;5058683;28;20085;-70
2021/10/21 07:53:43;;;;;;;0.00;0.00;;;16.10;81.40;;;;;;5066011;28;20031;-72
2021/10/21 07:56:08;;;;;;;0.17;0.17;;;16.10;80.70;;;;;;5053520;28;20033;-71
2021/10/21 07:58:34;;;;;;;1.77;0.65;;;16.10;80.70;;;;;;5054976;28;20056;-72
2021/10/21 08:01:00;;;;;;;0.00;0.00;;;16.10;80.80;;;;;;5041630;28;20040;-72
2021/10/21 08:03:25;;;;;;;0.20;0.20;;;16.10;79.90;;;;;;5059153;28;20028;-72
2021/10/21 08:05:51;;;;;;;0.00;0.00;;;16.10;79.80;;;;;;5064801;28;20036;-70
2021/10/21 08:08:16;;;;;;;0.77;0.32;;;16.10;79.60;;;;;;5048026;28;20504;-70
2021/10/21 08:10:42;;;;;;;0.32;0.30;;;16.10;79.40;;;;;;5050566;28;20053;-70
2021/10/21 08:13:10;;;;;;;0.00;0.00;;;16.10;79.00;;;;;;5067163;28;20063;-70
2021/10/21 08:15:36;;;;;;;0.00;0.00;;;16.20;78.70;;;;;;5062218;28;20029;-70
2021/10/21 08:18:01;;;;;;;0.00;0.00;;;16.20;78.70;;;;;;5057671;28;20040;-69
2021/10/21 08:20:28;;;;;;;0.03;0.03;;;16.20;78.10;;;;;;5065131;28;20052;-70
2021/10/21 08:22:54;;;;;;;0.00;0.00;;;16.30;77.10;;;;;;5061854;28;20126;-70
2021/10/21 08:25:20;;;;;;;0.00;0.00;;;16.30;77.10;;;;;;5062520;28;20032;-70
2021/10/21 08:27:45;;;;;;;0.00;0.00;;;16.40;77.10;;;;;;5058819;28;20033;-69
2021/10/21 08:30:16;;;;;;;0.00;0.00;;;16.40;76.50;;;;;;5060909;28;20919;-69
2021/10/21 08:32:42;;;;;;;0.03;0.03;;;16.40;76.20;;;;;;5061167;28;20039;-69
2021/10/21 08:35:07;;;;;;;0.00;0.00;;;16.40;75.90;;;;;;5064704;28;20024;-70
2021/10/21 08:37:35;;;;;;;3.63;0.30;;;16.40;75.80;;;;;;5058973;28;20682;-70
2021/10/21 08:40:01;;;;;;;0.00;0.00;;;16.40;75.70;;;;;;5063585;28;20741;-69
2021/10/21 08:42:27;;;;;;;0.10;0.10;;;16.40;75.20;;;;;;5069020;28;20383;-69
2021/10/21 08:44:53;;;;;;;0.10;0.10;;;16.40;74.50;;;;;;5067291;28;20027;-68
2021/10/21 08:47:19;;;;;;;0.00;0.00;;;16.40;74.30;;;;;;5061478;28;20036;-69
2021/10/21 08:49:46;;;;;;;0.10;0.10;;;16.40;74.80;;;;;;5066423;28;20435;-69
2021/10/21 08:52:12;;;;;;;3.70;0.90;;;16.40;74.90;;;;;;5051353;28;20513;-69
2021/10/21 08:54:38;;;;;;;0.00;0.00;;;16.50;74.20;;;;;;5079098;28;20024;-69
2021/10/21 08:57:04;;;;;;;0.10;0.10;;;16.50;74.30;;;;;;5068904;28;20379;-69
2021/10/21 08:59:30;;;;;;;0.00;0.00;;;16.50;74.70;;;;;;5065658;28;20024;-69
2021/10/21 09:02:35;;;;;;;0.00;0.00;;;16.50;74.90;;;;;;5070392;28;20468;-68
2021/10/21 09:04:57;;;;;;;0.38;0.22;;;16.40;74.60;;;;;;5062277;28;20044;-69
2021/10/21 09:10:11;;;;;;;0.00;0.00;;;16.40;74.30;;;;;;5059375;28;20048;-69
2021/10/21 09:12:41;;;;;;;0.00;0.00;;;16.40;75.10;;;;;;5066227;28;20033;-69
2021/10/21 09:15:15;;;;;;;74.65;1.65;;;16.30;75.00;;;;;;5065167;28;20043;-69
2021/10/21 09:17:41;;;;;;;0.52;0.52;;;16.40;75.10;;;;;;5065446;28;20119;-69
2021/10/21 09:20:39;;;;;;;6.35;1.17;;;16.30;75.10;;;;;;5068048;28;20020;-69
2021/10/21 09:23:08;;;;;;;0.00;0.00;;;16.30;75.40;;;;;;5058051;28;20223;-69
2021/10/21 09:25:34;;;;;;;1.75;0.73;;;16.30;75.70;;;;;;5069353;28;20445;-69
2021/10/21 09:28:02;;;;;;;0.10;0.10;;;16.30;76.00;;;;;;5066921;28;20472;-69
2021/10/21 09:30:33;;;;;;;0.00;0.00;;;16.30;76.50;;;;;;5069529;28;20035;-69
2021/10/21 09:33:04;;;;;;;0.38;0.38;;;16.20;76.10;;;;;;5061363;28;20032;-69
2021/10/21 09:35:31;;;;;;;0.25;0.25;;;16.20;78.00;;;;;;5055318;28;20043;-69
2021/10/21 09:37:57;;;;;;;9.10;1.95;;;16.10;77.90;;;;;;5065077;28;20050;-69
2021/10/21 09:40:28;;;;;;;0.00;0.00;;;16.00;79.60;;;;;;5059531;28;20028;-69
2021/10/21 09:42:55;;;;;;;0.10;0.10;;;15.90;79.60;;;;;;5068302;28;20032;-69
2021/10/21 09:45:31;;;;;;;0.00;0.00;;;15.90;82.70;;;;;;5055393;28;20046;-69
2021/10/21 09:47:59;;;;;;;0.85;0.63;;;15.80;83.90;;;;;;5054549;28;20403;-69
2021/10/21 09:50:31;;;;;;;0.00;0.00;;;15.70;82.70;;;;;;5062171;28;20542;-70
2021/10/21 09:53:25;;;;;;;0.15;0.08;;;15.70;81.20;;;;;;5053723;28;20407;-70
2021/10/21 09:55:53;;;;;;;0.00;0.00;;;15.80;81.00;;;;;;5062781;28;20169;-69
2021/10/21 09:58:23;;;;;;;0.20;0.20;;;15.90;79.40;;;;;;5076776;28;20040;-69
2021/10/21 10:00:50;;;;;;;0.10;0.10;;;16.00;78.70;;;;;;5066979;28;20072;-69
2021/10/21 10:03:31;;;;;;;0.00;0.00;;;16.10;78.10;;;;;;5057974;28;20040;-70
2021/10/21 10:05:57;;;;;;;0.00;0.00;;;16.10;77.90;;;;;;5062934;28;20099;-71
2021/10/21 10:08:24;;;;;;;0.25;0.25;;;16.10;79.70;;;;;;5060714;28;20104;-71
2021/10/21 10:10:55;;;;;;;0.00;0.00;;;16.00;79.80;;;;;;5061950;28;20106;-70
2021/10/21 10:13:22;;;;;;;0.00;0.00;;;15.90;79.70;;;;;;5060982;28;20064;-70
2021/10/21 10:15:49;;;;;;;0.10;0.10;;;15.90;79.60;;;;;;5066153;28;20036;-71
2021/10/21 10:18:20;;;;;;;15.00;1.20;;;15.90;80.10;;;;;;5062249;28;20036;-70
2021/10/21 10:20:52;;;;;;;0.05;0.05;;;15.90;80.40;;;;;;5066083;28;20509;-71
2021/10/21 10:23:21;;;;;;;0.10;0.10;;;15.90;80.50;;;;;;5066423;28;20127;-70
2021/10/21 10:25:47;;;;;;;0.30;0.20;;;15.90;81.10;;;;;;5068945;28;20039;-70
2021/10/21 10:28:14;;;;;;;0.00;0.00;;;15.80;83.50;;;;;;5058886;28;20067;-69
2021/10/21 10:30:49;;;;;;;0.93;0.35;;;15.70;88.60;;;;;;5067566;28;20577;-70
2021/10/21 10:33:34;;;;;;;0.10;0.10;;;15.50;89.40;;;;;;5067819;28;20415;-70
2021/10/21 10:36:21;;;;;;;0.00;0.00;;;15.40;88.70;;;;;;5066892;28;20775;-71
2021/10/21 10:38:47;;;;;;;2.78;0.15;;;15.30;88.50;;;;;;5066729;28;20539;-71
2021/10/21 10:41:13;;;;;;;33.05;0.95;;;15.40;90.10;;;;;;5059829;28;20139;-70
2021/10/21 10:43:41;;;;;;;0.00;0.00;;;15.30;89.10;;;;;;5066552;28;20475;-71
2021/10/21 10:46:11;;;;;;;0.00;0.00;;;15.40;89.30;;;;;;5062210;28;20024;-70
2021/10/21 10:48:46;;;;;;;0.05;0.05;;;15.30;90.30;;;;;;5067838;28;20138;-71
2021/10/21 10:51:12;;;;;;;0.00;0.00;;;15.20;91.10;;;;;;5063252;28;20111;-71
2021/10/21 10:53:49;;;;;;;0.20;0.10;;;15.00;95.30;;;;;;5052050;28;20111;-71
2021/10/21 10:56:36;;;;;;;0.10;0.10;;;14.60;99.20;;;;;;5058902;28;20024;-71
2021/10/21 10:59:15;;;;;;;0.00;0.00;;;14.20;99.90;;;;;;5061566;28;20021;-70
2021/10/21 11:01:40;;;;;;;0.00;0.00;;;14.00;99.90;;;;;;5062571;28;20021;-71
2021/10/21 11:04:06;;;;;;;0.00;0.00;;;14.00;99.90;;;;;;5066064;28;20082;-71
2021/10/21 11:06:34;;;;;;;0.00;0.00;;;14.00;99.90;;;;;;5055044;28;20025;-70
2021/10/21 11:09:04;;;;;;;0.15;0.15;;;14.10;98.20;;;;;;5061123;28;20048;-70
2021/10/21 11:12:02;;;;;;;1.17;0.47;;;14.10;96.90;;;;;;5062789;28;20025;-71
2021/10/21 11:14:31;;;;;;;0.22;0.22;;;14.10;96.50;;;;;;5056675;28;20039;-69
2021/10/21 11:16:57;;;;;;;0.00;0.00;;;14.00;95.70;;;;;;5060173;28;20020;-71
2021/10/21 11:19:46;;;;;;;0.00;0.00;;;14.00;95.30;;;;;;5067062;28;20028;-70
2021/10/21 11:22:21;;;;;;;0.25;0.25;;;14.00;95.00;;;;;;5067233;28;20021;-70
2021/10/21 11:24:51;;;;;;;0.00;0.00;;;14.10;95.00;;;;;;5064645;28;20047;-71
2021/10/21 11:27:25;;;;;;;0.00;0.00;;;14.30;93.60;;;;;;5054145;28;20098;-70
2021/10/21 11:29:53;;;;;;;16.98;1.00;;;14.60;92.20;;;;;;5055633;28;20400;-71
2021/10/21 11:32:20;;;;;;;0.00;0.00;;;14.60;90.60;;;;;;5066829;28;20031;-72
2021/10/21 11:34:50;;;;;;;0.00;0.00;;;14.80;90.90;;;;;;5067624;28;20035;-71
2021/10/21 11:37:32;;;;;;;0.00;0.00;;;14.80;90.90;;;;;;5066607;28;20043;-71
2021/10/21 11:39:57;;;;;;;;;;;14.90;91.90;;;;;;5067965;28;20025;-71
2021/10/21 11:42:27;;;;;;;0.00;0.00;;;14.80;92.10;;;;;;5066698;28;19911;-71
2021/10/21 11:45:02;;;;;;;0.00;0.00;;;14.70;92.60;;;;;;5061212;28;20016;-71
2021/10/21 11:47:28;;;;;;;0.03;0.03;;;14.50;93.60;;;;;;5065174;28;20078;-71
2021/10/21 11:49:56;;;;;;;0.30;0.25;;;14.40;93.90;;;;;;5066592;28;20033;-71
2021/10/21 11:52:36;;;;;;;0.17;0.17;;;14.40;94.50;;;;;;5056853;28;20159;-75
2021/10/21 11:55:02;;;;;;;0.00;0.00;;;14.30;94.60;;;;;;5064612;28;20124;-72
2021/10/21 11:57:32;;;;;;;0.05;0.05;;;14.20;94.50;;;;;;5063651;28;20024;-73
2021/10/21 11:59:59;;;;;;;0.10;0.10;;;14.30;94.80;;;;;;5056711;28;20053;-73
2021/10/21 12:02:29;;;;;;;0.10;0.10;;;14.50;93.80;;;;;;5057913;28;20535;-72
2021/10/21 12:04:54;;;;;;;0.00;0.00;;;14.70;92.40;;;;;;5067093;28;20394;-73
2021/10/21 12:07:21;;;;;;;0.03;0.03;;;14.80;91.60;;;;;;5066764;28;20107;-73
2021/10/21 12:09:47;;;;;;;0.00;0.00;;;14.80;91.10;;;;;;5059335;28;20487;-72
2021/10/21 12:12:17;;;;;;;0.00;0.00;;;14.50;91.30;;;;;;5059518;28;20064;-73
2021/10/21 12:14:45;;;;;;;0.00;0.00;;;14.40;91.50;;;;;;5056884;28;20021;-73
2021/10/21 12:17:11;;;;;;;0.00;0.00;;;14.60;91.60;;;;;;5053879;28;20458;-73
2021/10/21 12:19:39;;;;;;;0.00;0.00;;;14.70;90.90;;;;;;5060677;28;20115;-73
2021/10/21 12:22:19;;;;;;;0.00;0.00;;;14.70;90.70;;;;;;5068775;28;20025;-73
2021/10/21 12:24:46;;;;;;;0.10;0.10;;;14.70;90.60;;;;;;5072800;28;20090;-72
2021/10/21 12:27:27;;;;;;;0.00;0.00;;;14.60;90.30;;;;;;5064474;28;20112;-71
2021/10/21 12:30:07;;;;;;;0.15;0.15;;;14.40;90.70;;;;;;5063223;28;20779;-70
2021/10/21 12:32:33;;;;;;;0.43;0.25;;;14.30;91.00;;;;;;5059269;28;20451;-71
2021/10/21 12:35:09;;;;;;;0.05;0.05;;;14.20;91.40;;;;;;5057473;28;20037;-70
2021/10/21 12:37:42;;;;;;;0.00;0.00;;;14.10;91.30;;;;;;5066042;28;20365;-69
2021/10/21 12:40:21;;;;;;;0.00;0.00;;;14.00;91.40;;;;;;5062285;28;20031;-70
2021/10/21 12:42:46;;;;;;;0.05;0.05;;;13.90;91.20;;;;;;5059757;28;20079;-73
2021/10/21 12:45:34;;;;;;;0.00;0.00;;;13.90;91.50;;;;;;5055365;28;20056;-70
2021/10/21 12:48:18;;;;;;;0.00;0.00;;;13.90;91.70;;;;;;5052282;28;20032;-70
2021/10/21 12:50:47;;;;;;;0.10;0.10;;;14.00;91.00;;;;;;5060018;28;20051;-70
2021/10/21 12:53:13;;;;;;;0.00;0.00;;;14.30;90.20;;;;;;5065243;28;20052;-70